チタ の空港の天気 - METARとTAF

チタ・カダラ空港 ( UIAA / HTA ) - ロシア チタ
飛行場実況気象(Metar)
観測時間12/01 01:30 YAKT (11/30 16:30 UTC)
風向・風速南西 3m/s
視程10km以上
天気現象
なし
気温-21℃
湿度59%
気圧1021hPa
METARUIAA 301630Z AUTO 23003MPS 9999 NCD M21/M27 Q1021 RMK QFE707/0943
過去の天気等 Google飛行場航空写真 Wunderground天気予報

過去48時間のMETAR

飛行場予報(TAF)
発表時間: 11/30 23:00 YAKT (11/30 14:00 UTC)
予報対象時間: 1日0時 YAKT ~ 2日0時 YAKT
風向・風速西 6m/s 瞬間風速 12m/s
視程10km以上
全天の4割程度の積乱雲 雲底高度 1220m
1日0時 YAKT ~ 1日12時 YAKT に一時的に
風向・風速南南西 3m/s 瞬間風速 8m/s
TAF UIAA 301400Z 3015/0115 27006G12MPS 9999 SCT040CB
TEMPO 3015/0103 21003G08MPS